Time;durP1;ratioP1;P1;durP2;ratioP2;P2;SDS_P1;SDS_P2;PMS_P1;PMS_P2;Temp;Humidity;BMP_temperature;BMP_pressure;BME280_temperature;BME280_humidity;BME280_pressure;Samples;Min_cycle;Max_cycle;Signal;HPM_P1;HPM_P2
2023/05/03 00:01:07;;;;;;;5.97;5.37;;;;;;;;;;5047406;28;20231;-80
2023/05/03 00:03:32;;;;;;;5.37;4.83;;;;;;;;;;5047536;28;20203;-79
2023/05/03 00:06:07;;;;;;;5.50;4.63;;;;;;;;;;5041706;28;20177;-79
2023/05/03 00:08:33;;;;;;;7.53;4.40;;;;;;;;;;5045426;28;20186;-79
2023/05/03 00:10:58;;;;;;;5.37;4.60;;;;;;;;;;5046188;28;20180;-79
2023/05/03 00:13:24;;;;;;;6.00;4.80;;;;;;;;;;5047602;28;20187;-79
2023/05/03 00:15:49;;;;;;;5.83;4.83;;;;;;;;;;5039317;28;20168;-79
2023/05/03 00:18:14;;;;;;;5.80;5.07;;;;;;;;;;5043723;28;20192;-80
2023/05/03 00:20:40;;;;;;;7.00;4.50;;;;;;;;;;5042905;28;20201;-80
2023/05/03 00:23:05;;;;;;;8.03;5.70;;;;;;;;;;5044157;28;20172;-80
2023/05/03 00:25:31;;;;;;;5.90;4.70;;;;;;;;;;5040399;28;20172;-80
2023/05/03 00:27:56;;;;;;;6.07;4.60;;;;;;;;;;5041975;28;20175;-79
2023/05/03 00:30:21;;;;;;;6.37;4.73;;;;;;;;;;5035045;28;20252;-80
2023/05/03 00:32:46;;;;;;;5.40;4.80;;;;;;;;;;5038029;28;20176;-80
2023/05/03 00:35:12;;;;;;;7.60;5.17;;;;;;;;;;5044371;28;20301;-80
2023/05/03 00:37:37;;;;;;;6.23;4.40;;;;;;;;;;5043395;28;20183;-80
2023/05/03 00:40:03;;;;;;;6.40;5.53;;;;;;;;;;5045058;28;20267;-80
2023/05/03 00:42:29;;;;;;;5.97;4.80;;;;;;;;;;5044575;28;20259;-79
2023/05/03 00:44:54;;;;;;;6.53;5.30;;;;;;;;;;5045977;28;20336;-79
2023/05/03 00:47:21;;;;;;;7.60;5.77;;;;;;;;;;5048858;28;20257;-80
2023/05/03 00:49:46;;;;;;;5.80;5.10;;;;;;;;;;5035103;28;20187;-80
2023/05/03 00:52:12;;;;;;;6.73;5.47;;;;;;;;;;5044223;28;20188;-80
2023/05/03 00:54:37;;;;;;;9.00;4.77;;;;;;;;;;5039002;28;20200;-80
2023/05/03 00:57:03;;;;;;;6.43;5.13;;;;;;;;;;5045867;28;20180;-80
2023/05/03 00:59:28;;;;;;;6.87;5.70;;;;;;;;;;5046235;28;20178;-80
2023/05/03 01:01:53;;;;;;;6.70;6.00;;;;;;;;;;5043995;28;20183;-80
2023/05/03 01:04:19;;;;;;;6.00;5.33;;;;;;;;;;5039400;28;20345;-79
2023/05/03 01:06:50;;;;;;;7.77;5.60;;;;;;;;;;5042526;28;20201;-80
2023/05/03 01:09:18;;;;;;;7.10;5.10;;;;;;;;;;5047991;28;20178;-80
2023/05/03 01:11:54;;;;;;;8.30;5.73;;;;;;;;;;5041754;28;20183;-80
2023/05/03 01:14:35;;;;;;;6.77;5.63;;;;;;;;;;5047738;28;20203;-80
2023/05/03 01:17:06;;;;;;;7.80;5.63;;;;;;;;;;5038461;28;20184;-79
2023/05/03 01:19:34;;;;;;;9.00;5.93;;;;;;;;;;5046395;28;20274;-80
2023/05/03 01:22:14;;;;;;;6.17;4.97;;;;;;;;;;5045877;28;20179;-80
2023/05/03 01:24:41;;;;;;;7.63;5.33;;;;;;;;;;5040183;28;20210;-79
2023/05/03 01:27:08;;;;;;;11.67;6.20;;;;;;;;;;5036931;28;20232;-80
2023/05/03 01:29:33;;;;;;;9.03;5.37;;;;;;;;;;5040498;28;20230;-80
2023/05/03 01:32:00;;;;;;;6.67;5.43;;;;;;;;;;5042268;28;20199;-79
2023/05/03 01:34:25;;;;;;;6.47;5.13;;;;;;;;;;5037529;28;20219;-80
2023/05/03 01:36:52;;;;;;;6.93;5.53;;;;;;;;;;5036440;28;20222;-80
2023/05/03 01:39:41;;;;;;;7.50;5.67;;;;;;;;;;5036345;28;20203;-80
2023/05/03 01:42:06;;;;;;;8.77;5.40;;;;;;;;;;5043748;28;20218;-79
2023/05/03 01:44:32;;;;;;;9.70;6.07;;;;;;;;;;5033506;28;20202;-79
2023/05/03 01:46:58;;;;;;;7.83;5.93;;;;;;;;;;5042080;28;20214;-79
2023/05/03 01:49:23;;;;;;;12.57;6.60;;;;;;;;;;5052500;28;20205;-79
2023/05/03 01:51:48;;;;;;;7.57;6.60;;;;;;;;;;5040941;28;20175;-79
2023/05/03 01:54:15;;;;;;;9.00;5.50;;;;;;;;;;5051443;28;20202;-79
2023/05/03 01:56:40;;;;;;;9.10;6.40;;;;;;;;;;5042703;28;20206;-80
2023/05/03 01:59:05;;;;;;;7.67;5.63;;;;;;;;;;5046720;28;20201;-80
2023/05/03 02:01:31;;;;;;;7.80;5.90;;;;;;;;;;5050514;28;20178;-79
2023/05/03 02:03:56;;;;;;;6.77;5.50;;;;;;;;;;5044255;28;20202;-79
2023/05/03 02:06:23;;;;;;;6.10;5.43;;;;;;;;;;5043766;28;20246;-80
2023/05/03 02:08:48;;;;;;;7.53;5.40;;;;;;;;;;5050334;28;20251;-79
2023/05/03 02:11:13;;;;;;;7.80;5.43;;;;;;;;;;5045991;28;20179;-79
2023/05/03 02:13:38;;;;;;;10.77;6.60;;;;;;;;;;5043655;28;20252;-80
2023/05/03 02:16:04;;;;;;;7.80;5.97;;;;;;;;;;5045463;28;20258;-79
2023/05/03 02:18:30;;;;;;;6.63;5.63;;;;;;;;;;5045453;28;20182;-80
2023/05/03 02:20:55;;;;;;;7.00;6.07;;;;;;;;;;5041521;28;20281;-80
2023/05/03 02:23:20;;;;;;;6.57;5.57;;;;;;;;;;5043858;28;20249;-80
2023/05/03 02:25:46;;;;;;;8.20;6.03;;;;;;;;;;5058516;28;20186;-79
2023/05/03 02:28:11;;;;;;;9.17;6.43;;;;;;;;;;5042852;28;20178;-80
2023/05/03 02:30:36;;;;;;;8.87;6.17;;;;;;;;;;5037165;28;20256;-79
2023/05/03 02:33:01;;;;;;;7.57;6.30;;;;;;;;;;5034628;28;20192;-79
2023/05/03 02:35:27;;;;;;;10.87;6.87;;;;;;;;;;5038913;28;20175;-80
2023/05/03 02:37:52;;;;;;;8.97;6.37;;;;;;;;;;5044079;28;20177;-80
2023/05/03 02:40:17;;;;;;;9.87;6.73;;;;;;;;;;5040960;28;20186;-80
2023/05/03 02:42:42;;;;;;;11.93;7.10;;;;;;;;;;5037386;28;20187;-80
2023/05/03 02:45:08;;;;;;;9.57;5.80;;;;;;;;;;5044861;28;20193;-79
2023/05/03 02:47:33;;;;;;;8.17;6.83;;;;;;;;;;5041285;28;20212;-79
2023/05/03 02:49:58;;;;;;;7.37;6.00;;;;;;;;;;5039923;28;20193;-79
2023/05/03 02:52:23;;;;;;;7.83;5.73;;;;;;;;;;5036461;28;20272;-79
2023/05/03 02:54:49;;;;;;;10.63;6.93;;;;;;;;;;5039268;28;20210;-79
2023/05/03 02:57:14;;;;;;;10.13;6.70;;;;;;;;;;5039443;28;20181;-80
2023/05/03 02:59:40;;;;;;;7.63;6.47;;;;;;;;;;5041277;28;20171;-79
2023/05/03 03:02:05;;;;;;;8.73;7.00;;;;;;;;;;5046850;28;20196;-79
2023/05/03 03:04:30;;;;;;;9.57;6.17;;;;;;;;;;5039828;28;20178;-80
2023/05/03 03:06:56;;;;;;;9.13;6.67;;;;;;;;;;5042397;28;20194;-79
2023/05/03 03:09:21;;;;;;;8.93;6.57;;;;;;;;;;5046775;28;20209;-79
2023/05/03 03:11:46;;;;;;;8.23;6.90;;;;;;;;;;5038447;28;20188;-79
2023/05/03 03:14:11;;;;;;;9.07;6.23;;;;;;;;;;5040111;28;20191;-79
2023/05/03 03:16:36;;;;;;;9.93;6.60;;;;;;;;;;5054176;28;20182;-79
2023/05/03 03:19:02;;;;;;;7.50;6.20;;;;;;;;;;5041386;28;20190;-79
2023/05/03 03:21:27;;;;;;;8.73;6.13;;;;;;;;;;5045074;28;20210;-79
2023/05/03 03:23:53;;;;;;;12.07;8.53;;;;;;;;;;5050607;28;20181;-80
2023/05/03 03:26:18;;;;;;;8.53;6.53;;;;;;;;;;5041836;28;20181;-79
2023/05/03 03:28:43;;;;;;;8.73;6.53;;;;;;;;;;5049071;28;20224;-79
2023/05/03 03:31:09;;;;;;;8.83;6.13;;;;;;;;;;5047394;28;20181;-79
2023/05/03 03:33:34;;;;;;;9.57;6.83;;;;;;;;;;5047513;28;20206;-80
2023/05/03 03:35:59;;;;;;;10.30;6.80;;;;;;;;;;5043623;28;20197;-79
2023/05/03 03:38:24;;;;;;;7.33;6.33;;;;;;;;;;5038983;28;20173;-80
2023/05/03 03:40:51;;;;;;;8.40;7.20;;;;;;;;;;5045805;28;20239;-80
2023/05/03 03:43:16;;;;;;;8.77;6.20;;;;;;;;;;5039451;28;20183;-79
2023/05/03 03:45:42;;;;;;;7.30;6.00;;;;;;;;;;5041846;28;20273;-79
2023/05/03 03:48:07;;;;;;;10.80;6.67;;;;;;;;;;5045947;28;20181;-79
2023/05/03 03:50:33;;;;;;;11.37;6.97;;;;;;;;;;5047202;28;20260;-79
2023/05/03 03:52:58;;;;;;;7.37;5.53;;;;;;;;;;5042242;28;20185;-80
2023/05/03 03:55:23;;;;;;;6.80;5.93;;;;;;;;;;5045553;28;20182;-79
2023/05/03 03:57:48;;;;;;;12.70;7.43;;;;;;;;;;5046410;28;20189;-80
2023/05/03 04:00:13;;;;;;;15.07;8.17;;;;;;;;;;5041588;28;20166;-80
2023/05/03 04:02:39;;;;;;;9.40;6.63;;;;;;;;;;5043733;28;20317;-79
2023/05/03 04:05:06;;;;;;;12.20;7.30;;;;;;;;;;5047342;28;20252;-79
2023/05/03 04:07:32;;;;;;;9.63;6.73;;;;;;;;;;5043933;28;20179;-80
2023/05/03 04:09:57;;;;;;;11.40;7.83;;;;;;;;;;5041201;28;20184;-79
2023/05/03 04:12:22;;;;;;;11.83;8.47;;;;;;;;;;5040063;28;20177;-78
2023/05/03 04:14:48;;;;;;;10.97;8.23;;;;;;;;;;5044505;28;20225;-78
2023/05/03 04:17:13;;;;;;;10.67;6.90;;;;;;;;;;5039412;28;20167;-78
2023/05/03 04:19:38;;;;;;;10.80;7.00;;;;;;;;;;5040801;28;20183;-79
2023/05/03 04:22:04;;;;;;;10.80;8.07;;;;;;;;;;5048624;28;20268;-79
2023/05/03 04:24:30;;;;;;;13.97;8.43;;;;;;;;;;5042143;28;20185;-78
2023/05/03 04:26:55;;;;;;;11.47;7.50;;;;;;;;;;5046819;28;20189;-78
2023/05/03 04:29:21;;;;;;;10.03;7.00;;;;;;;;;;5037907;28;20230;-78
2023/05/03 04:31:46;;;;;;;12.33;9.37;;;;;;;;;;5042365;28;20189;-81
2023/05/03 04:34:14;;;;;;;15.47;9.50;;;;;;;;;;5045014;28;20206;-79
2023/05/03 04:36:41;;;;;;;12.17;8.77;;;;;;;;;;5042402;28;20181;-79
2023/05/03 04:39:06;;;;;;;12.60;9.47;;;;;;;;;;5055114;28;20186;-78
2023/05/03 04:41:32;;;;;;;16.57;9.57;;;;;;;;;;5041862;28;20227;-79
2023/05/03 04:43:57;;;;;;;26.03;18.90;;;;;;;;;;5046526;28;20221;-79
2023/05/03 04:46:22;;;;;;;16.83;9.30;;;;;;;;;;5050099;28;20178;-79
2023/05/03 04:48:48;;;;;;;13.43;8.33;;;;;;;;;;5042035;28;20182;-79
2023/05/03 04:51:13;;;;;;;14.40;9.17;;;;;;;;;;5051364;28;20170;-79
2023/05/03 04:53:39;;;;;;;15.30;8.30;;;;;;;;;;5039379;28;20200;-79
2023/05/03 04:56:04;;;;;;;15.00;8.67;;;;;;;;;;5065582;28;20170;-81
2023/05/03 04:58:29;;;;;;;11.37;7.77;;;;;;;;;;5047859;28;20178;-79
2023/05/03 05:00:55;;;;;;;14.70;9.53;;;;;;;;;;5045885;28;20190;-79
2023/05/03 05:03:20;;;;;;;12.70;8.60;;;;;;;;;;5038153;28;20203;-79
2023/05/03 05:05:45;;;;;;;16.00;9.30;;;;;;;;;;5041918;28;20174;-74
2023/05/03 05:08:10;;;;;;;13.33;9.07;;;;;;;;;;5041521;28;20175;-76
2023/05/03 05:10:37;;;;;;;13.43;8.30;;;;;;;;;;5046434;28;20184;-76
2023/05/03 05:13:02;;;;;;;18.57;9.60;;;;;;;;;;5045440;28;20233;-76
2023/05/03 05:15:28;;;;;;;15.03;9.67;;;;;;;;;;5043661;28;20167;-76
2023/05/03 05:17:53;;;;;;;12.70;9.07;;;;;;;;;;5037635;28;20178;-76
2023/05/03 05:20:18;;;;;;;13.47;9.67;;;;;;;;;;5043090;28;20211;-76
2023/05/03 05:22:43;;;;;;;13.53;8.73;;;;;;;;;;5049061;28;20197;-76
2023/05/03 05:25:08;;;;;;;18.40;9.73;;;;;;;;;;5035589;28;20199;-76
2023/05/03 05:27:34;;;;;;;14.20;10.17;;;;;;;;;;5049674;28;20185;-76
2023/05/03 05:30:00;;;;;;;12.60;9.03;;;;;;;;;;5038677;28;20246;-76
2023/05/03 05:32:25;;;;;;;15.27;9.27;;;;;;;;;;5050155;28;20184;-76
2023/05/03 05:34:54;;;;;;;13.67;10.10;;;;;;;;;;5044810;28;20222;-76
2023/05/03 05:37:20;;;;;;;14.33;9.90;;;;;;;;;;5045503;28;20194;-76
2023/05/03 05:39:45;;;;;;;14.20;10.43;;;;;;;;;;5045810;28;20245;-75
2023/05/03 05:42:10;;;;;;;17.10;11.03;;;;;;;;;;5045899;28;20269;-76
2023/05/03 05:44:35;;;;;;;18.20;11.97;;;;;;;;;;5048150;28;20232;-76
2023/05/03 05:47:00;;;;;;;18.87;9.50;;;;;;;;;;5044788;28;20182;-76
2023/05/03 05:49:25;;;;;;;16.33;11.00;;;;;;;;;;5047256;28;20201;-76
2023/05/03 05:51:51;;;;;;;16.27;10.00;;;;;;;;;;5045605;28;20180;-76
2023/05/03 05:54:16;;;;;;;14.70;10.77;;;;;;;;;;5047884;28;20199;-76
2023/05/03 05:56:41;;;;;;;15.17;10.37;;;;;;;;;;5046169;28;20264;-77
2023/05/03 05:59:06;;;;;;;20.40;12.77;;;;;;;;;;5044753;28;20176;-76
2023/05/03 06:01:33;;;;;;;20.10;10.77;;;;;;;;;;5038938;28;20214;-76
2023/05/03 06:03:58;;;;;;;14.20;10.90;;;;;;;;;;5037603;28;20238;-76
2023/05/03 06:06:23;;;;;;;17.50;11.47;;;;;;;;;;5062328;28;20198;-77
2023/05/03 06:08:50;;;;;;;23.27;11.27;;;;;;;;;;5043271;28;20206;-76
2023/05/03 06:11:16;;;;;;;20.13;10.97;;;;;;;;;;5045902;28;20182;-76
2023/05/03 06:13:41;;;;;;;12.97;8.83;;;;;;;;;;5056699;28;20214;-76
2023/05/03 06:16:06;;;;;;;13.97;9.27;;;;;;;;;;5041780;28;20266;-76
2023/05/03 06:18:31;;;;;;;17.27;11.00;;;;;;;;;;5039625;28;20174;-76
2023/05/03 06:20:57;;;;;;;13.67;9.37;;;;;;;;;;5038917;28;20179;-76
2023/05/03 06:23:22;;;;;;;12.33;9.93;;;;;;;;;;5041828;28;20174;-76
2023/05/03 06:25:47;;;;;;;12.57;8.40;;;;;;;;;;5033714;28;20196;-76
2023/05/03 06:28:12;;;;;;;15.60;10.57;;;;;;;;;;5041316;28;20188;-76
2023/05/03 06:30:38;;;;;;;16.47;10.57;;;;;;;;;;5044160;28;20226;-76
2023/05/03 06:33:03;;;;;;;12.37;9.83;;;;;;;;;;5038011;28;20202;-77
2023/05/03 06:35:28;;;;;;;14.23;10.73;;;;;;;;;;5038746;28;20177;-76
2023/05/03 06:37:54;;;;;;;16.20;10.30;;;;;;;;;;5046835;28;20193;-76
2023/05/03 06:40:19;;;;;;;13.70;10.87;;;;;;;;;;5049505;28;20201;-76
2023/05/03 06:42:45;;;;;;;11.93;10.20;;;;;;;;;;5048951;28;20275;-76
2023/05/03 06:45:10;;;;;;;15.17;9.63;;;;;;;;;;5043105;28;20186;-76
2023/05/03 06:47:35;;;;;;;14.23;10.73;;;;;;;;;;5042503;28;20173;-76
2023/05/03 06:50:01;;;;;;;15.07;9.17;;;;;;;;;;5043192;28;20182;-76
2023/05/03 06:52:26;;;;;;;14.53;9.83;;;;;;;;;;5032838;28;20269;-76
2023/05/03 06:54:52;;;;;;;15.20;10.13;;;;;;;;;;5036424;28;20230;-77
2023/05/03 06:57:17;;;;;;;13.80;10.30;;;;;;;;;;5043700;28;20182;-77
2023/05/03 06:59:42;;;;;;;14.13;9.87;;;;;;;;;;5042783;28;20257;-77
2023/05/03 07:02:07;;;;;;;13.47;10.40;;;;;;;;;;5048488;28;20207;-77
2023/05/03 07:04:33;;;;;;;16.50;9.90;;;;;;;;;;5037773;28;20206;-76
2023/05/03 07:06:58;;;;;;;14.17;10.63;;;;;;;;;;5042320;28;20179;-76
2023/05/03 07:09:23;;;;;;;14.53;11.67;;;;;;;;;;5040408;28;20186;-77
2023/05/03 07:11:50;;;;;;;14.17;10.60;;;;;;;;;;5043097;28;20180;-77
2023/05/03 07:14:16;;;;;;;12.83;10.17;;;;;;;;;;5048650;28;20194;-77
2023/05/03 07:16:41;;;;;;;13.73;9.97;;;;;;;;;;5043734;28;20194;-77
2023/05/03 07:19:06;;;;;;;14.60;11.80;;;;;;;;;;5046551;28;20228;-77
2023/05/03 07:21:32;;;;;;;13.80;11.37;;;;;;;;;;5047643;28;20228;-76
2023/05/03 07:23:58;;;;;;;19.17;12.67;;;;;;;;;;5044442;28;20185;-77
2023/05/03 07:26:25;;;;;;;15.97;11.80;;;;;;;;;;5034195;28;20179;-77
2023/05/03 07:28:50;;;;;;;19.10;12.00;;;;;;;;;;5039238;28;20222;-77
2023/05/03 07:31:16;;;;;;;18.50;11.43;;;;;;;;;;5045794;28;20240;-76
2023/05/03 07:33:41;;;;;;;16.10;11.93;;;;;;;;;;5041352;28;20225;-77
2023/05/03 07:36:06;;;;;;;16.70;14.93;;;;;;;;;;5042380;28;20188;-77
2023/05/03 07:38:33;;;;;;;14.07;12.50;;;;;;;;;;5041640;28;20199;-77
2023/05/03 07:40:58;;;;;;;17.40;11.33;;;;;;;;;;5047240;28;20171;-77
2023/05/03 07:43:23;;;;;;;15.27;11.67;;;;;;;;;;5039937;28;20178;-76
2023/05/03 07:45:48;;;;;;;14.53;11.53;;;;;;;;;;5045895;28;20198;-76
2023/05/03 07:48:14;;;;;;;13.97;12.27;;;;;;;;;;5048590;28;20173;-77
2023/05/03 07:50:45;;;;;;;14.90;11.20;;;;;;;;;;5065908;28;20233;-77
2023/05/03 07:53:11;;;;;;;13.60;11.47;;;;;;;;;;5047519;28;20203;-77
2023/05/03 07:55:36;;;;;;;13.00;11.20;;;;;;;;;;5050820;28;20197;-77
2023/05/03 07:58:02;;;;;;;14.27;10.67;;;;;;;;;;5044596;28;20175;-77
2023/05/03 08:00:27;;;;;;;15.07;11.40;;;;;;;;;;5047371;28;20208;-77
2023/05/03 08:02:53;;;;;;;14.20;11.57;;;;;;;;;;5048590;28;20235;-76
2023/05/03 08:05:18;;;;;;;12.30;10.07;;;;;;;;;;5043882;28;20199;-77
2023/05/03 08:07:43;;;;;;;16.77;13.03;;;;;;;;;;5050227;28;20189;-77
2023/05/03 08:10:09;;;;;;;14.07;12.13;;;;;;;;;;5051192;28;20180;-76
2023/05/03 08:12:34;;;;;;;14.43;11.77;;;;;;;;;;5049009;28;20175;-77
2023/05/03 08:15:00;;;;;;;14.13;11.73;;;;;;;;;;5051285;28;20208;-77
2023/05/03 08:17:25;;;;;;;15.80;13.07;;;;;;;;;;5043038;28;20174;-77
2023/05/03 08:19:51;;;;;;;15.40;11.03;;;;;;;;;;5043636;28;20254;-77
2023/05/03 08:22:17;;;;;;;15.40;12.93;;;;;;;;;;5047833;28;20173;-77
2023/05/03 08:24:42;;;;;;;12.10;10.80;;;;;;;;;;5042422;28;20178;-77
2023/05/03 08:27:09;;;;;;;12.57;9.63;;;;;;;;;;5040115;28;20283;-77
2023/05/03 08:29:36;;;;;;;13.93;10.80;;;;;;;;;;5049351;28;20255;-77
2023/05/03 08:32:01;;;;;;;12.83;11.10;;;;;;;;;;5044891;28;20196;-77
2023/05/03 08:34:27;;;;;;;15.13;10.37;;;;;;;;;;5043095;28;20207;-76
2023/05/03 08:36:52;;;;;;;11.70;10.43;;;;;;;;;;5049656;28;20180;-76
2023/05/03 08:39:17;;;;;;;11.73;10.43;;;;;;;;;;5049542;28;20180;-76
2023/05/03 08:41:43;;;;;;;14.07;11.13;;;;;;;;;;5045330;28;20216;-76
2023/05/03 08:44:10;;;;;;;13.17;10.57;;;;;;;;;;5046748;28;20185;-76
2023/05/03 08:46:37;;;;;;;12.87;10.43;;;;;;;;;;5044458;28;20177;-76
2023/05/03 08:49:02;;;;;;;15.47;11.93;;;;;;;;;;5059009;28;20177;-76
2023/05/03 08:51:28;;;;;;;11.50;10.30;;;;;;;;;;5041243;28;20182;-76
2023/05/03 08:53:53;;;;;;;13.27;10.73;;;;;;;;;;5043735;28;20200;-76
2023/05/03 08:56:29;;;;;;;15.87;11.50;;;;;;;;;;5047510;28;20183;-76
2023/05/03 08:58:54;;;;;;;15.60;12.13;;;;;;;;;;5047287;28;20327;-76
2023/05/03 09:01:19;;;;;;;12.23;10.93;;;;;;;;;;5042282;28;20206;-76
2023/05/03 09:03:48;;;;;;;12.10;10.27;;;;;;;;;;5049274;28;20201;-76
2023/05/03 09:06:26;;;;;;;11.67;10.23;;;;;;;;;;5065046;28;20235;-77
2023/05/03 09:08:52;;;;;;;13.33;11.37;;;;;;;;;;5046500;28;20181;-76
2023/05/03 09:11:21;;;;;;;14.20;10.57;;;;;;;;;;5049001;28;20250;-76
2023/05/03 09:13:46;;;;;;;11.60;9.97;;;;;;;;;;5047808;28;20292;-76
2023/05/03 09:16:20;;;;;;;11.73;10.53;;;;;;;;;;5044932;28;20234;-77
2023/05/03 09:18:55;;;;;;;13.47;10.83;;;;;;;;;;5038695;28;20174;-76
2023/05/03 09:21:20;;;;;;;12.33;11.00;;;;;;;;;;5038344;28;20177;-76
2023/05/03 09:23:45;;;;;;;17.70;11.07;;;;;;;;;;5043181;28;20175;-76
2023/05/03 09:26:10;;;;;;;13.47;11.03;;;;;;;;;;5038672;28;20180;-76
2023/05/03 09:28:39;;;;;;;13.17;10.90;;;;;;;;;;5044690;28;20181;-77
2023/05/03 09:31:06;;;;;;;11.33;9.73;;;;;;;;;;5042638;28;20207;-77
2023/05/03 09:33:31;;;;;;;13.03;9.97;;;;;;;;;;5035967;28;20205;-76
2023/05/03 09:35:58;;;;;;;13.33;10.83;;;;;;;;;;5046756;28;20176;-76
2023/05/03 09:38:30;;;;;;;12.50;10.53;;;;;;;;;;5044955;28;20175;-76
2023/05/03 09:40:56;;;;;;;11.83;9.93;;;;;;;;;;5061534;28;20201;-77
2023/05/03 09:43:21;;;;;;;10.90;9.20;;;;;;;;;;5043678;28;20177;-77
2023/05/03 09:45:47;;;;;;;11.70;10.10;;;;;;;;;;5045139;28;20182;-76
2023/05/03 09:48:12;;;;;;;13.23;10.33;;;;;;;;;;5042268;28;20172;-76
2023/05/03 09:50:38;;;;;;;10.87;9.77;;;;;;;;;;5043384;28;20190;-77
2023/05/03 09:53:04;;;;;;;14.37;11.03;;;;;;;;;;5045321;28;20200;-77
2023/05/03 09:55:33;;;;;;;11.77;9.13;;;;;;;;;;5048414;28;20199;-77
2023/05/03 09:57:58;;;;;;;12.93;9.50;;;;;;;;;;5042378;28;20181;-77
2023/05/03 10:00:24;;;;;;;11.60;8.37;;;;;;;;;;5044986;28;20207;-77
2023/05/03 10:02:50;;;;;;;10.87;9.73;;;;;;;;;;5040320;28;20284;-77
2023/05/03 10:05:17;;;;;;;10.67;8.93;;;;;;;;;;5041677;28;20171;-77
2023/05/03 10:07:42;;;;;;;9.77;8.77;;;;;;;;;;5041050;28;20188;-77
2023/05/03 10:10:08;;;;;;;10.77;9.70;;;;;;;;;;5045376;28;20187;-77
2023/05/03 10:12:35;;;;;;;9.33;8.17;;;;;;;;;;5048515;28;20254;-77
2023/05/03 10:15:02;;;;;;;11.93;9.53;;;;;;;;;;5039399;28;20209;-77
2023/05/03 10:17:30;;;;;;;10.70;8.60;;;;;;;;;;5045366;28;20176;-77
2023/05/03 10:19:59;;;;;;;9.83;8.83;;;;;;;;;;5043701;28;20190;-77
2023/05/03 10:22:25;;;;;;;10.13;9.13;;;;;;;;;;5039569;28;20181;-77
2023/05/03 10:25:00;;;;;;;13.33;8.60;;;;;;;;;;5048501;28;20232;-77
2023/05/03 10:28:01;;;;;;;9.73;8.73;;;;;;;;;;5063804;28;20199;-77
2023/05/03 10:30:27;;;;;;;12.43;9.30;;;;;;;;;;4970907;28;20235;-77
2023/05/03 10:32:53;;;;;;;10.70;9.60;;;;;;;;;;4987874;28;20192;-77
2023/05/03 10:35:18;;;;;;;9.67;8.60;;;;;;;;;;4973129;28;20211;-77
2023/05/03 10:37:44;;;;;;;9.93;8.13;;;;;;;;;;4971848;28;20190;-77
2023/05/03 10:40:10;;;;;;;11.93;8.90;;;;;;;;;;4972045;28;20211;-77
2023/05/03 10:42:36;;;;;;;11.10;9.60;;;;;;;;;;4987342;28;20197;-77
2023/05/03 10:45:02;;;;;;;10.27;8.40;;;;;;;;;;4969445;28;20195;-77
2023/05/03 10:47:28;;;;;;;10.30;8.80;;;;;;;;;;4987645;28;20195;-77
2023/05/03 10:50:12;;;;;;;9.20;8.30;;;;;;;;;;4970583;28;20179;-77
2023/05/03 10:52:38;;;;;;;9.93;9.03;;;;;;;;;;4987829;28;20382;-78
2023/05/03 10:55:17;;;;;;;11.27;9.30;;;;;;;;;;4987361;28;20219;-77
2023/05/03 10:57:46;;;;;;;11.27;10.17;;;;;;;;;;4971378;28;20184;-77
2023/05/03 11:00:35;;;;;;;10.30;9.30;;;;;;;;;;4970197;28;20175;-77
2023/05/03 11:03:10;;;;;;;11.80;9.67;;;;;;;;;;4963237;28;20255;-77
2023/05/03 11:05:35;;;;;;;10.17;8.20;;;;;;;;;;5038173;28;20209;-77
2023/05/03 11:08:08;;;;;;;9.90;7.90;;;;;;;;;;5040311;28;20237;-77
2023/05/03 11:10:33;;;;;;;10.03;7.90;;;;;;;;;;5043911;28;20175;-77
2023/05/03 11:12:58;;;;;;;10.23;9.27;;;;;;;;;;5043274;28;20214;-77
2023/05/03 11:15:24;;;;;;;8.47;7.50;;;;;;;;;;5036195;28;20206;-77
2023/05/03 11:17:49;;;;;;;9.00;8.10;;;;;;;;;;5046740;28;20192;-77
2023/05/03 11:20:15;;;;;;;10.57;9.57;;;;;;;;;;5048817;28;20172;-77
2023/05/03 11:22:40;;;;;;;9.37;8.37;;;;;;;;;;5051773;28;20179;-77
2023/05/03 11:25:05;;;;;;;9.57;8.67;;;;;;;;;;5035009;28;20267;-77
2023/05/03 11:27:30;;;;;;;7.47;4.97;;;;;;;;;;5043777;28;20180;-78
2023/05/03 11:29:58;;;;;;;8.47;7.60;;;;;;;;;;5038983;28;20235;-78
2023/05/03 11:32:27;;;;;;;14.97;8.80;;;;;;;;;;5043672;28;20176;-78
2023/05/03 11:34:52;;;;;;;11.30;8.37;;;;;;;;;;5042428;28;20296;-78
2023/05/03 11:37:17;;;;;;;9.13;8.23;;;;;;;;;;5048272;28;20268;-78
2023/05/03 11:39:42;;;;;;;9.90;7.80;;;;;;;;;;5044624;28;20175;-78
2023/05/03 11:42:08;;;;;;;7.00;5.87;;;;;;;;;;5046916;28;20176;-78
2023/05/03 11:44:33;;;;;;;10.63;7.57;;;;;;;;;;5045554;28;20313;-78
2023/05/03 11:46:58;;;;;;;9.10;8.20;;;;;;;;;;5038801;28;20187;-78
2023/05/03 11:49:24;;;;;;;9.70;8.17;;;;;;;;;;5040452;28;20178;-77
2023/05/03 11:51:50;;;;;;;9.50;8.43;;;;;;;;;;5049494;28;20191;-78
2023/05/03 11:54:15;;;;;;;7.53;6.73;;;;;;;;;;5048575;28;20274;-75
2023/05/03 11:56:41;;;;;;;9.30;7.10;;;;;;;;;;5045808;28;20173;-81
2023/05/03 11:59:06;;;;;;;7.93;7.23;;;;;;;;;;5047693;28;20180;-84
2023/05/03 12:01:32;;;;;;;8.53;7.13;;;;;;;;;;5044456;28;20169;-83
2023/05/03 12:03:58;;;;;;;9.40;7.70;;;;;;;;;;5039387;28;20210;-83
2023/05/03 12:06:24;;;;;;;8.57;7.63;;;;;;;;;;5046559;28;20201;-84
2023/05/03 12:08:49;;;;;;;8.53;6.47;;;;;;;;;;5044562;28;20209;-79
2023/05/03 12:11:14;;;;;;;7.13;6.40;;;;;;;;;;5042238;28;20177;-84
2023/05/03 12:13:40;;;;;;;7.03;6.40;;;;;;;;;;5027225;28;20237;-84
2023/05/03 12:16:06;;;;;;;8.23;7.07;;;;;;;;;;5065910;28;20183;-84
2023/05/03 12:18:48;;;;;;;8.13;7.30;;;;;;;;;;5048496;28;20190;-83
2023/05/03 12:21:14;;;;;;;7.30;6.60;;;;;;;;;;5062558;28;20179;-84
2023/05/03 12:23:40;;;;;;;8.27;7.03;;;;;;;;;;5048626;28;20174;-84
2023/05/03 12:26:05;;;;;;;7.27;5.70;;;;;;;;;;5042188;28;20232;-85
2023/05/03 12:28:30;;;;;;;7.80;7.00;;;;;;;;;;5048400;28;20178;-83
2023/05/03 12:30:56;;;;;;;7.80;6.50;;;;;;;;;;5041610;28;20183;-84
2023/05/03 12:33:21;;;;;;;6.53;5.87;;;;;;;;;;5049125;28;20176;-84
2023/05/03 12:35:46;;;;;;;8.33;6.83;;;;;;;;;;5042146;28;20191;-83
2023/05/03 12:38:12;;;;;;;6.73;5.57;;;;;;;;;;5048637;28;20186;-84
2023/05/03 12:40:37;;;;;;;7.87;6.80;;;;;;;;;;5044803;28;20205;-84
2023/05/03 12:43:03;;;;;;;8.53;7.07;;;;;;;;;;5049696;28;20169;-84
2023/05/03 12:45:30;;;;;;;8.00;6.13;;;;;;;;;;5056391;28;20179;-84
2023/05/03 12:47:55;;;;;;;6.77;5.97;;;;;;;;;;5043065;28;20189;-84
2023/05/03 12:50:21;;;;;;;6.70;6.07;;;;;;;;;;5042630;28;20189;-83
2023/05/03 12:52:46;;;;;;;10.07;7.43;;;;;;;;;;5041989;28;20185;-84
2023/05/03 12:55:11;;;;;;;6.57;5.93;;;;;;;;;;5035020;28;20198;-83
2023/05/03 12:57:36;;;;;;;7.93;6.13;;;;;;;;;;5046567;28;20185;-84
2023/05/03 13:00:02;;;;;;;7.63;6.83;;;;;;;;;;5045422;28;20180;-83
2023/05/03 13:02:27;;;;;;;6.60;6.00;;;;;;;;;;5035789;28;20298;-84
2023/05/03 13:04:55;;;;;;;6.07;5.20;;;;;;;;;;5040619;28;20181;-85
2023/05/03 13:07:23;;;;;;;10.00;6.57;;;;;;;;;;5042149;28;20176;-84
2023/05/03 13:09:48;;;;;;;6.83;6.20;;;;;;;;;;5033020;28;20177;-83
2023/05/03 13:12:13;;;;;;;6.00;5.40;;;;;;;;;;5035550;28;20241;-82
2023/05/03 13:14:40;;;;;;;6.83;5.67;;;;;;;;;;5041053;28;20249;-83
2023/05/03 13:17:05;;;;;;;6.90;5.50;;;;;;;;;;5040717;28;20183;-84
2023/05/03 13:19:30;;;;;;;7.03;5.97;;;;;;;;;;5047285;28;20179;-84
2023/05/03 13:21:56;;;;;;;6.60;5.93;;;;;;;;;;5045371;28;20181;-83
2023/05/03 13:24:21;;;;;;;5.67;5.17;;;;;;;;;;5042487;28;20265;-84
2023/05/03 13:26:46;;;;;;;7.47;5.90;;;;;;;;;;5040885;28;20189;-84
2023/05/03 13:29:11;;;;;;;7.93;5.20;;;;;;;;;;5042566;28;20233;-84
2023/05/03 13:31:37;;;;;;;6.10;5.50;;;;;;;;;;5048110;28;20282;-83
2023/05/03 13:34:02;;;;;;;7.83;7.07;;;;;;;;;;5042244;28;20207;-84
2023/05/03 13:36:28;;;;;;;6.77;6.07;;;;;;;;;;5045341;28;20225;-83
2023/05/03 13:38:54;;;;;;;6.50;5.23;;;;;;;;;;5048390;28;20202;-84
2023/05/03 13:41:21;;;;;;;6.60;5.07;;;;;;;;;;5047912;28;20213;-84
2023/05/03 13:43:46;;;;;;;8.50;5.30;;;;;;;;;;5044460;28;20196;-83
2023/05/03 13:46:12;;;;;;;6.80;5.20;;;;;;;;;;5043026;28;20179;-84
2023/05/03 13:48:37;;;;;;;6.67;5.47;;;;;;;;;;5049199;28;20170;-83
2023/05/03 13:51:07;;;;;;;8.27;6.67;;;;;;;;;;5045339;28;20180;-83
2023/05/03 13:53:32;;;;;;;7.53;5.43;;;;;;;;;;5041018;28;20178;-85
2023/05/03 13:55:58;;;;;;;12.17;4.97;;;;;;;;;;5041587;28;20244;-86
2023/05/03 13:58:23;;;;;;;7.90;6.03;;;;;;;;;;5046138;28;20232;-85
2023/05/03 14:00:48;;;;;;;6.40;5.43;;;;;;;;;;5042158;28;20253;-86
2023/05/03 14:03:14;;;;;;;7.23;5.50;;;;;;;;;;5045731;28;20213;-83
2023/05/03 14:05:39;;;;;;;5.47;4.80;;;;;;;;;;5042027;28;20185;-83
2023/05/03 14:08:04;;;;;;;7.73;5.63;;;;;;;;;;5043753;28;20273;-84
2023/05/03 14:10:33;;;;;;;5.97;4.90;;;;;;;;;;5043325;28;20343;-83
2023/05/03 14:12:59;;;;;;;8.37;5.67;;;;;;;;;;5042083;28;20227;-82
2023/05/03 14:15:24;;;;;;;6.23;5.07;;;;;;;;;;5041386;28;20273;-83
2023/05/03 14:17:49;;;;;;;6.77;5.13;;;;;;;;;;5038731;28;20239;-84
2023/05/03 14:20:16;;;;;;;6.47;4.70;;;;;;;;;;5040003;28;20182;-83
2023/05/03 14:22:41;;;;;;;6.87;4.80;;;;;;;;;;5043198;28;20177;-84
2023/05/03 14:25:07;;;;;;;11.70;6.93;;;;;;;;;;5038200;28;20268;-85
2023/05/03 14:27:32;;;;;;;9.10;6.03;;;;;;;;;;5048465;28;20190;-85